Time;durP1;ratioP1;P1;durP2;ratioP2;P2;SDS_P1;SDS_P2;PMS_P1;PMS_P2;Temp;Humidity;BMP_temperature;BMP_pressure;BME280_temperature;BME280_humidity;BME280_pressure;Samples;Min_cycle;Max_cycle;Signal;HPM_P1;HPM_P2
2021/06/08 00:00:59;;;;;;;10.98;2.33;;;15.60;74.00;;;;;;5107925;28;20103;-79
2021/06/08 00:03:25;;;;;;;10.35;2.83;;;15.50;74.20;;;;;;5108034;28;20115;-76
2021/06/08 00:05:50;;;;;;;6.97;1.90;;;15.60;74.50;;;;;;5090617;28;20440;-77
2021/06/08 00:08:16;;;;;;;8.55;1.98;;;15.50;74.70;;;;;;5108988;28;20023;-79
2021/06/08 00:10:42;;;;;;;9.20;1.83;;;15.50;75.10;;;;;;5107684;28;20031;-77
2021/06/08 00:13:08;;;;;;;5.80;1.70;;;15.40;75.30;;;;;;5107415;28;20024;-78
2021/06/08 00:15:34;;;;;;;11.75;2.63;;;15.40;75.70;;;;;;5107778;28;20428;-77
2021/06/08 00:17:59;;;;;;;6.43;2.03;;;15.40;75.90;;;;;;5107505;28;20036;-78
2021/06/08 00:20:25;;;;;;;11.95;2.03;;;15.40;76.30;;;;;;5107481;28;20452;-77
2021/06/08 00:22:51;;;;;;;13.38;2.45;;;15.40;76.60;;;;;;5090755;28;20035;-76
2021/06/08 00:25:16;;;;;;;9.27;2.42;;;15.30;76.80;;;;;;5108540;28;20031;-78
2021/06/08 00:27:42;;;;;;;8.75;2.15;;;15.30;77.10;;;;;;5106556;28;20029;-77
2021/06/08 00:30:09;;;;;;;8.45;2.70;;;15.30;77.40;;;;;;5090246;28;20435;-77
2021/06/08 00:32:34;;;;;;;16.30;2.95;;;15.30;77.80;;;;;;5090150;28;20118;-78
2021/06/08 00:35:00;;;;;;;8.88;2.17;;;15.20;78.10;;;;;;5073003;28;20166;-76
2021/06/08 00:37:26;;;;;;;8.15;2.03;;;15.20;78.30;;;;;;5107005;28;20027;-77
2021/06/08 00:39:54;;;;;;;12.73;2.78;;;15.20;78.70;;;;;;5089999;28;20047;-77
2021/06/08 00:42:31;;;;;;;9.48;2.13;;;15.10;79.10;;;;;;5106727;28;20036;-78
2021/06/08 00:44:57;;;;;;;8.93;2.65;;;15.10;79.50;;;;;;5090004;28;20062;-79
2021/06/08 00:47:23;;;;;;;8.60;2.42;;;15.10;79.80;;;;;;5106760;28;20658;-77
2021/06/08 00:49:49;;;;;;;9.90;2.45;;;15.10;80.20;;;;;;5089906;28;20024;-77
2021/06/08 00:52:15;;;;;;;7.13;2.15;;;15.00;80.40;;;;;;5106808;28;20020;-78
2021/06/08 00:54:41;;;;;;;9.00;2.40;;;15.00;80.80;;;;;;5106661;28;20104;-78
2021/06/08 00:57:07;;;;;;;9.07;2.55;;;15.00;81.00;;;;;;5106513;28;20094;-78
2021/06/08 00:59:32;;;;;;;14.75;2.95;;;15.00;81.30;;;;;;5089882;28;20052;-79
2021/06/08 01:01:58;;;;;;;8.70;2.20;;;15.00;81.60;;;;;;5106837;28;20031;-78
2021/06/08 01:04:25;;;;;;;14.70;2.67;;;15.00;82.00;;;;;;5108098;28;20095;-76
2021/06/08 01:06:51;;;;;;;8.95;2.35;;;15.00;82.40;;;;;;5106653;28;20024;-79
2021/06/08 01:09:16;;;;;;;10.80;3.03;;;15.10;82.60;;;;;;5089695;28;20032;-79
2021/06/08 01:11:42;;;;;;;16.15;2.95;;;15.00;82.80;;;;;;5073083;28;20053;-78
2021/06/08 01:14:08;;;;;;;12.73;2.78;;;15.00;83.10;;;;;;5108068;28;20097;-79
2021/06/08 01:16:34;;;;;;;14.20;3.20;;;15.10;83.70;;;;;;5089765;28;20385;-78
2021/06/08 01:19:00;;;;;;;11.02;3.33;;;15.30;83.90;;;;;;5106655;28;20071;-77
2021/06/08 01:21:27;;;;;;;8.90;2.25;;;15.40;83.90;;;;;;5089884;28;20032;-79
2021/06/08 01:23:54;;;;;;;12.23;2.58;;;15.50;84.00;;;;;;5106563;28;20024;-76
2021/06/08 01:26:24;;;;;;;7.75;2.33;;;15.50;83.80;;;;;;5106448;28;20089;-80
2021/06/08 01:28:50;;;;;;;12.75;2.75;;;15.50;83.90;;;;;;5106603;28;20078;-77
2021/06/08 01:31:20;;;;;;;14.32;2.33;;;15.60;83.90;;;;;;5106585;28;20035;-80
2021/06/08 01:33:46;;;;;;;;;;;15.60;84.10;;;;;;5107089;28;20106;-79
2021/06/08 01:36:18;;;;;;;10.43;2.92;;;15.60;84.00;;;;;;5106476;28;20009;-80
2021/06/08 01:38:44;;;;;;;10.50;2.40;;;15.70;83.90;;;;;;5107833;28;20103;-77
2021/06/08 01:41:14;;;;;;;9.48;2.47;;;15.70;84.20;;;;;;5109665;28;20485;-79
2021/06/08 01:43:41;;;;;;;11.13;2.60;;;15.70;84.60;;;;;;5110455;28;20540;-77
2021/06/08 01:46:08;;;;;;;9.15;2.85;;;15.70;84.70;;;;;;5093455;28;20032;-80
2021/06/08 01:48:34;;;;;;;7.45;2.22;;;15.80;84.90;;;;;;5110200;28;20418;-79
2021/06/08 01:51:23;;;;;;;10.75;2.63;;;15.80;85.00;;;;;;5110335;28;20066;-80
2021/06/08 01:54:26;;;;;;;9.88;3.50;;;15.90;85.20;;;;;;5110350;28;20118;-80
2021/06/08 01:57:10;;;;;;;9.95;2.95;;;15.90;85.20;;;;;;5110942;28;20041;-80
2021/06/08 02:00:06;;;;;;;6.43;2.60;;;16.00;85.10;;;;;;5110025;28;20040;-78
2021/06/08 02:02:53;;;;;;;8.27;1.85;;;16.00;85.20;;;;;;5111289;28;20016;-78
2021/06/08 02:05:18;;;;;;;13.05;2.85;;;16.10;85.30;;;;;;5110113;28;20024;-79
2021/06/08 02:07:54;;;;;;;10.10;2.38;;;16.10;85.00;;;;;;5109628;28;20038;-79
2021/06/08 02:10:49;;;;;;;6.47;2.47;;;16.20;85.20;;;;;;5109931;28;20024;-77
2021/06/08 02:13:29;;;;;;;7.95;2.47;;;16.10;85.20;;;;;;5111263;28;20498;-79
2021/06/08 02:16:28;;;;;;;11.43;2.55;;;16.20;85.00;;;;;;5109941;28;20047;-80
2021/06/08 02:18:54;;;;;;;10.87;2.33;;;16.20;85.20;;;;;;5103421;28;20036;-78
2021/06/08 02:21:41;;;;;;;10.25;3.22;;;16.20;84.90;;;;;;5109656;28;20512;-78
2021/06/08 02:24:09;;;;;;;12.38;2.53;;;16.20;85.40;;;;;;5110762;28;20497;-80
2021/06/08 02:26:39;;;;;;;17.60;3.90;;;16.20;85.20;;;;;;5109410;28;20027;-79
2021/06/08 02:29:06;;;;;;;8.18;2.60;;;16.30;85.40;;;;;;5110727;28;20084;-78
2021/06/08 02:31:33;;;;;;;9.60;3.22;;;16.30;85.50;;;;;;5109530;28;20763;-78
2021/06/08 02:34:01;;;;;;;8.68;2.55;;;16.30;85.50;;;;;;5075648;28;20462;-79
2021/06/08 02:36:27;;;;;;;9.98;2.70;;;16.40;85.60;;;;;;5092610;28;20028;-78
2021/06/08 02:38:55;;;;;;;8.40;2.25;;;16.40;85.50;;;;;;5109295;28;20084;-80
2021/06/08 02:41:23;;;;;;;7.53;2.28;;;16.40;85.50;;;;;;5109313;28;20370;-79
2021/06/08 02:43:51;;;;;;;8.88;2.50;;;16.40;85.50;;;;;;5110575;28;20085;-78
2021/06/08 02:46:17;;;;;;;9.57;2.17;;;16.40;85.70;;;;;;5110318;28;20027;-78
2021/06/08 02:48:45;;;;;;;10.52;3.17;;;16.40;85.70;;;;;;5092133;28;20118;-80
2021/06/08 02:51:13;;;;;;;11.85;2.70;;;16.40;85.90;;;;;;5108725;28;20031;-80
2021/06/08 02:53:39;;;;;;;8.05;2.83;;;16.40;86.10;;;;;;5109027;28;20300;-78
2021/06/08 02:56:06;;;;;;;17.67;3.10;;;16.40;86.30;;;;;;5110395;28;20024;-79
2021/06/08 02:58:33;;;;;;;9.52;2.63;;;16.40;86.40;;;;;;5109958;28;20048;-79
2021/06/08 03:00:58;;;;;;;10.65;3.17;;;16.40;86.50;;;;;;5110247;28;20020;-77
2021/06/08 03:03:32;;;;;;;7.25;2.47;;;16.40;86.60;;;;;;5108897;28;20039;-78
2021/06/08 03:06:08;;;;;;;7.15;2.25;;;16.40;86.80;;;;;;5108875;28;20054;-79
2021/06/08 03:08:36;;;;;;;10.60;3.45;;;16.40;86.90;;;;;;5108750;28;20034;-77
2021/06/08 03:11:15;;;;;;;9.23;2.30;;;16.40;86.90;;;;;;5109975;28;20031;-80
2021/06/08 03:13:41;;;;;;;7.80;2.50;;;16.30;87.20;;;;;;5108768;28;20038;-77
2021/06/08 03:16:10;;;;;;;17.95;3.17;;;16.40;87.20;;;;;;5108665;28;20028;-77
2021/06/08 03:18:38;;;;;;;10.20;3.03;;;16.30;87.30;;;;;;5108442;28;20031;-78
2021/06/08 03:21:25;;;;;;;8.55;2.38;;;16.30;87.50;;;;;;5108521;28;20463;-79
2021/06/08 03:23:55;;;;;;;8.32;2.47;;;16.30;88.00;;;;;;5108239;28;20055;-80
2021/06/08 03:26:22;;;;;;;;;;;16.30;88.00;;;;;;5110171;28;20028;-79
2021/06/08 03:28:51;;;;;;;13.57;2.72;;;16.40;87.80;;;;;;5108387;28;19966;-78
2021/06/08 03:31:18;;;;;;;7.57;2.90;;;16.30;87.60;;;;;;5109584;28;20024;-76
2021/06/08 03:33:46;;;;;;;7.18;2.88;;;16.30;88.00;;;;;;5108408;28;20031;-79
2021/06/08 03:36:12;;;;;;;11.15;3.60;;;16.20;88.90;;;;;;5091257;28;20054;-79
2021/06/08 03:38:40;;;;;;;9.90;3.60;;;16.20;88.90;;;;;;5108048;28;20028;-76
2021/06/08 03:41:07;;;;;;;7.72;2.78;;;16.20;89.30;;;;;;5108294;28;20036;-77
2021/06/08 03:43:33;;;;;;;9.48;3.28;;;16.30;89.50;;;;;;5107956;28;20092;-77
2021/06/08 03:45:59;;;;;;;11.00;3.03;;;16.30;89.80;;;;;;5108017;28;20085;-78
2021/06/08 03:48:26;;;;;;;7.22;3.10;;;16.30;90.00;;;;;;5109353;27;20024;-75
2021/06/08 03:50:52;;;;;;;9.63;3.28;;;16.20;90.00;;;;;;5091007;28;20020;-78
2021/06/08 03:53:19;;;;;;;10.20;2.92;;;16.20;90.10;;;;;;5091045;28;20027;-78
2021/06/08 03:55:47;;;;;;;9.43;2.97;;;16.20;90.30;;;;;;5090765;28;20560;-76
2021/06/08 03:58:17;;;;;;;10.02;3.33;;;16.20;90.40;;;;;;5108811;28;20048;-79
2021/06/08 04:00:46;;;;;;;11.35;3.33;;;16.10;90.60;;;;;;5108782;28;20028;-80
2021/06/08 04:03:13;;;;;;;12.00;3.00;;;16.10;90.70;;;;;;5090485;28;20440;-78
2021/06/08 04:05:40;;;;;;;9.77;2.75;;;16.20;90.80;;;;;;5090787;28;20032;-77
2021/06/08 04:08:08;;;;;;;9.40;3.00;;;16.20;90.80;;;;;;5108734;28;20110;-77
2021/06/08 04:10:34;;;;;;;10.98;3.25;;;16.20;90.90;;;;;;5108873;28;20022;-79
2021/06/08 04:13:05;;;;;;;6.97;2.83;;;16.20;90.90;;;;;;5108759;28;20032;-77
2021/06/08 04:15:32;;;;;;;12.23;3.70;;;16.30;91.10;;;;;;5108909;28;20046;-77
2021/06/08 04:17:58;;;;;;;7.75;2.80;;;16.30;91.10;;;;;;5090411;28;20089;-80
2021/06/08 04:20:27;;;;;;;12.20;2.88;;;16.30;91.10;;;;;;5107406;28;20020;-77
2021/06/08 04:22:56;;;;;;;9.25;2.50;;;16.30;91.20;;;;;;5090495;28;20155;-79
2021/06/08 04:25:23;;;;;;;20.17;3.00;;;16.30;91.20;;;;;;5107254;28;20501;-77
2021/06/08 04:27:50;;;;;;;7.90;2.60;;;16.40;91.20;;;;;;5108660;28;20212;-79
2021/06/08 04:30:17;;;;;;;10.10;2.85;;;16.40;91.20;;;;;;5107380;28;20055;-78
2021/06/08 04:32:43;;;;;;;7.95;2.53;;;16.40;91.30;;;;;;5107295;28;20473;-77
2021/06/08 04:35:09;;;;;;;8.65;2.75;;;16.40;91.40;;;;;;5107142;28;20126;-78
2021/06/08 04:37:36;;;;;;;6.25;2.20;;;16.40;91.40;;;;;;5106922;28;20023;-79
2021/06/08 04:40:04;;;;;;;5.72;2.22;;;16.40;91.60;;;;;;5107181;28;20023;-78
2021/06/08 04:42:30;;;;;;;8.90;2.25;;;16.40;91.60;;;;;;5108233;28;20086;-78
2021/06/08 04:44:56;;;;;;;4.03;1.77;;;16.40;91.70;;;;;;5090044;28;20397;-79
2021/06/08 04:47:23;;;;;;;5.28;2.03;;;16.40;91.80;;;;;;5106772;28;20024;-78
2021/06/08 04:49:50;;;;;;;8.65;2.10;;;16.40;91.90;;;;;;5090053;28;20055;-79
2021/06/08 04:52:16;;;;;;;4.55;1.90;;;16.40;91.90;;;;;;5107066;28;20027;-77
2021/06/08 04:54:42;;;;;;;5.55;2.63;;;16.40;91.90;;;;;;5089848;28;20027;-77
2021/06/08 04:57:11;;;;;;;8.88;2.15;;;16.40;91.90;;;;;;5106583;28;20490;-77
2021/06/08 04:59:57;;;;;;;4.95;1.92;;;16.50;92.00;;;;;;5108235;28;20041;-77
2021/06/08 05:02:48;;;;;;;4.60;1.85;;;16.50;92.10;;;;;;5108114;28;20433;-78
2021/06/08 05:05:23;;;;;;;4.30;1.80;;;16.50;92.10;;;;;;5108238;28;20136;-78
2021/06/08 05:08:20;;;;;;;6.05;2.20;;;16.50;92.10;;;;;;5108092;28;20031;-79
2021/06/08 05:11:13;;;;;;;5.53;3.15;;;16.50;92.20;;;;;;5101764;28;20048;-80
2021/06/08 05:13:42;;;;;;;4.47;2.10;;;16.60;92.20;;;;;;5108623;28;20020;-81
2021/06/08 05:16:08;;;;;;;4.05;2.10;;;16.60;92.10;;;;;;5112331;28;20098;-77
2021/06/08 05:18:39;;;;;;;8.35;1.65;;;16.60;92.10;;;;;;5093782;28;20106;-78
2021/06/08 05:21:05;;;;;;;5.63;2.88;;;16.60;92.20;;;;;;5110868;28;20051;-77
2021/06/08 05:23:34;;;;;;;6.50;1.90;;;16.60;92.20;;;;;;5110789;28;20132;-78
2021/06/08 05:26:00;;;;;;;6.32;2.28;;;16.60;92.30;;;;;;5110543;28;20027;-78
2021/06/08 05:28:27;;;;;;;5.57;1.90;;;16.60;92.30;;;;;;5110551;28;20035;-77
2021/06/08 05:30:53;;;;;;;7.15;2.53;;;16.70;92.40;;;;;;5094011;28;20031;-76
2021/06/08 05:33:23;;;;;;;7.88;2.45;;;16.70;92.50;;;;;;5112027;28;20030;-78
2021/06/08 05:35:52;;;;;;;;;;;16.70;92.50;;;;;;5112341;28;20111;-77
2021/06/08 05:38:27;;;;;;;7.97;2.17;;;16.70;92.40;;;;;;5110346;28;19904;-78
2021/06/08 05:40:52;;;;;;;7.03;1.92;;;16.70;92.20;;;;;;5110492;28;20028;-76
2021/06/08 05:43:18;;;;;;;3.28;1.77;;;16.80;92.40;;;;;;5076567;28;20027;-78
2021/06/08 05:45:45;;;;;;;7.88;2.20;;;16.80;92.50;;;;;;5093472;28;20052;-80
2021/06/08 05:48:11;;;;;;;5.15;2.00;;;16.80;92.50;;;;;;5111622;28;20034;-79
2021/06/08 05:50:37;;;;;;;4.20;1.85;;;16.80;92.50;;;;;;5110222;28;20020;-78
2021/06/08 05:53:04;;;;;;;4.28;1.95;;;16.90;92.60;;;;;;5110180;28;20431;-79
2021/06/08 05:55:33;;;;;;;5.60;1.70;;;17.00;92.60;;;;;;5109999;28;20020;-78
2021/06/08 05:57:59;;;;;;;6.13;1.70;;;17.00;92.60;;;;;;5111175;28;20112;-77
2021/06/08 06:00:27;;;;;;;8.20;2.05;;;17.10;92.50;;;;;;5109997;28;20039;-76
2021/06/08 06:02:54;;;;;;;4.47;1.83;;;17.10;92.50;;;;;;5109939;28;20337;-79
2021/06/08 06:05:20;;;;;;;5.20;1.98;;;17.10;92.40;;;;;;5092977;28;20039;-77
2021/06/08 06:07:46;;;;;;;3.92;1.33;;;17.10;92.40;;;;;;5092969;28;20074;-78
2021/06/08 06:10:12;;;;;;;2.70;1.55;;;17.20;92.60;;;;;;5109767;28;20506;-77
2021/06/08 06:12:39;;;;;;;3.00;1.40;;;17.30;92.50;;;;;;5092735;28;20020;-78
2021/06/08 06:15:10;;;;;;;5.05;1.35;;;17.30;92.40;;;;;;5076307;28;20493;-77
2021/06/08 06:17:38;;;;;;;2.60;1.33;;;17.40;92.30;;;;;;5111184;28;20027;-78
2021/06/08 06:20:10;;;;;;;4.78;2.30;;;17.40;92.20;;;;;;5109383;28;20485;-78
2021/06/08 06:22:38;;;;;;;3.45;1.20;;;17.40;92.20;;;;;;5109463;28;20086;-77
2021/06/08 06:25:06;;;;;;;5.72;1.33;;;17.50;92.30;;;;;;5110371;28;20146;-79
2021/06/08 06:27:49;;;;;;;1.90;1.10;;;17.70;92.30;;;;;;5092005;28;20028;-79
2021/06/08 06:30:16;;;;;;;5.47;1.48;;;17.90;91.80;;;;;;5109286;28;20049;-79
2021/06/08 06:32:43;;;;;;;4.60;1.33;;;18.00;91.40;;;;;;5092532;28;20020;-78
2021/06/08 06:35:10;;;;;;;2.85;1.52;;;18.00;91.20;;;;;;5109653;28;20015;-78
2021/06/08 06:37:38;;;;;;;4.57;1.30;;;18.00;91.30;;;;;;5110485;28;20119;-78
2021/06/08 06:40:09;;;;;;;2.38;1.25;;;18.10;91.20;;;;;;5092526;28;20430;-79
2021/06/08 06:43:04;;;;;;;3.95;1.02;;;18.20;91.00;;;;;;5110980;28;20110;-77
2021/06/08 06:45:33;;;;;;;1.70;0.90;;;18.30;90.80;;;;;;5108263;28;20061;-79
2021/06/08 06:48:02;;;;;;;5.07;1.23;;;18.40;90.60;;;;;;5108928;28;20466;-78
2021/06/08 06:50:31;;;;;;;8.02;2.17;;;18.40;90.50;;;;;;5110303;28;20121;-78
2021/06/08 06:52:57;;;;;;;3.20;0.90;;;18.50;90.30;;;;;;5109094;28;20063;-78
2021/06/08 06:55:27;;;;;;;2.53;1.63;;;18.60;90.10;;;;;;5092054;28;20122;-76
2021/06/08 06:57:57;;;;;;;3.10;1.10;;;18.70;89.90;;;;;;5110093;28;20051;-77
2021/06/08 07:00:24;;;;;;;3.08;1.00;;;18.70;89.60;;;;;;5108775;28;20031;-77
2021/06/08 07:02:53;;;;;;;2.45;0.95;;;18.80;89.50;;;;;;5091974;28;20240;-78
2021/06/08 07:05:27;;;;;;;11.40;1.20;;;19.00;89.10;;;;;;5110142;28;20038;-78
2021/06/08 07:07:54;;;;;;;3.40;1.42;;;19.10;88.60;;;;;;5108671;28;20414;-78
2021/06/08 07:10:26;;;;;;;5.65;1.30;;;19.10;88.40;;;;;;5108452;28;20031;-77
2021/06/08 07:12:56;;;;;;;5.72;1.20;;;19.20;88.00;;;;;;5109873;28;20376;-80
2021/06/08 07:15:29;;;;;;;4.30;1.50;;;19.40;87.20;;;;;;5108477;28;20043;-77
2021/06/08 07:17:55;;;;;;;4.53;1.40;;;19.50;86.60;;;;;;5108263;28;20035;-80
2021/06/08 07:20:24;;;;;;;4.57;1.55;;;19.60;86.00;;;;;;5109753;28;20023;-79
2021/06/08 07:22:51;;;;;;;2.70;1.38;;;19.60;85.20;;;;;;5108195;28;20030;-80
2021/06/08 07:25:18;;;;;;;6.03;1.48;;;19.60;84.50;;;;;;5108292;28;20070;-77
2021/06/08 07:27:44;;;;;;;3.10;1.30;;;19.60;84.70;;;;;;5074639;28;20390;-78
2021/06/08 07:30:12;;;;;;;3.33;1.40;;;19.60;84.50;;;;;;5109673;28;20032;-77
2021/06/08 07:32:57;;;;;;;4.85;1.40;;;19.70;84.20;;;;;;5108050;28;20026;-78
2021/06/08 07:35:32;;;;;;;4.07;1.23;;;19.70;84.00;;;;;;5111989;28;20039;-78
2021/06/08 07:38:07;;;;;;;3.90;1.73;;;19.70;83.80;;;;;;5109857;28;20092;-76
2021/06/08 07:40:44;;;;;;;5.55;1.58;;;19.70;83.40;;;;;;5109055;28;20032;-76
2021/06/08 07:43:12;;;;;;;8.20;2.75;;;19.70;83.30;;;;;;5107709;28;20023;-78
2021/06/08 07:45:44;;;;;;;6.13;1.60;;;19.80;83.60;;;;;;5090773;28;20088;-77
2021/06/08 07:48:24;;;;;;;9.75;2.03;;;19.80;83.70;;;;;;5109216;28;20430;-79
2021/06/08 07:50:52;;;;;;;8.05;1.83;;;20.00;83.50;;;;;;5110964;28;20438;-78
2021/06/08 07:53:18;;;;;;;4.65;1.60;;;20.20;83.00;;;;;;5108412;28;20027;-76
2021/06/08 07:55:45;;;;;;;5.25;1.55;;;20.40;82.40;;;;;;5113154;28;20020;-75
2021/06/08 07:58:11;;;;;;;3.80;1.27;;;20.60;82.00;;;;;;5110800;28;20126;-79
2021/06/08 08:00:38;;;;;;;3.95;1.35;;;21.50;82.60;;;;;;5109409;28;20028;-78
2021/06/08 08:05:49;;;;;;;4.63;1.40;;;23.00;77.00;;;;;;5107652;28;20118;-77
2021/06/08 08:08:18;;;;;;;3.15;1.25;;;23.30;75.40;;;;;;5107702;28;20376;-77
2021/06/08 08:10:44;;;;;;;8.23;1.50;;;23.60;73.70;;;;;;5107290;28;20023;-77
2021/06/08 08:13:12;;;;;;;3.60;1.50;;;23.50;72.10;;;;;;5107454;28;20051;-78
2021/06/08 08:15:38;;;;;;;2.78;1.20;;;23.30;71.60;;;;;;5107646;28;20031;-78
2021/06/08 08:18:04;;;;;;;9.02;1.83;;;23.10;71.50;;;;;;5090655;28;20059;-77
2021/06/08 08:20:53;;;;;;;3.58;1.30;;;23.00;71.40;;;;;;5091112;28;20032;-77
2021/06/08 08:23:21;;;;;;;4.45;1.15;;;22.80;71.30;;;;;;5108443;28;20032;-77
2021/06/08 08:25:47;;;;;;;6.38;1.80;;;22.80;71.30;;;;;;5090843;28;20038;-79
2021/06/08 08:28:14;;;;;;;5.68;1.85;;;22.80;71.30;;;;;;5108524;28;20038;-77
2021/06/08 08:30:40;;;;;;;4.30;1.30;;;22.90;71.40;;;;;;5073273;28;20039;-79
2021/06/08 08:33:06;;;;;;;6.20;1.30;;;23.10;71.20;;;;;;5108691;28;20085;-78
2021/06/08 08:35:41;;;;;;;3.50;1.52;;;23.30;70.10;;;;;;5108359;28;20039;-78
2021/06/08 08:38:07;;;;;;;4.30;1.50;;;23.20;69.50;;;;;;5106931;28;20024;-77
2021/06/08 08:40:33;;;;;;;10.02;1.80;;;23.20;69.10;;;;;;5108220;28;20057;-78
2021/06/08 08:43:01;;;;;;;3.05;1.20;;;23.10;68.70;;;;;;5089867;28;20682;-78
2021/06/08 08:45:31;;;;;;;6.18;1.10;;;23.10;69.00;;;;;;5106936;28;20481;-75
2021/06/08 08:47:58;;;;;;;5.25;1.58;;;23.10;68.80;;;;;;5106179;28;20043;-76
2021/06/08 08:50:25;;;;;;;2.75;1.27;;;23.10;68.70;;;;;;5107058;28;20046;-76
2021/06/08 08:52:57;;;;;;;3.50;1.85;;;23.10;68.40;;;;;;5108404;28;20020;-78
2021/06/08 08:55:25;;;;;;;3.88;1.30;;;23.00;68.10;;;;;;5107850;28;20019;-77
2021/06/08 08:57:52;;;;;;;7.80;1.40;;;23.00;68.30;;;;;;5106025;28;20104;-77
2021/06/08 09:00:19;;;;;;;4.78;1.30;;;23.00;68.00;;;;;;5089638;28;20044;-76
2021/06/08 09:02:46;;;;;;;4.47;1.40;;;23.10;68.50;;;;;;5089729;28;20031;-76
2021/06/08 09:05:11;;;;;;;5.53;1.75;;;23.20;67.90;;;;;;5107849;28;20034;-78
2021/06/08 09:07:38;;;;;;;5.60;1.58;;;23.30;67.80;;;;;;5118845;28;20064;-76
2021/06/08 09:10:08;;;;;;;6.03;1.38;;;23.50;67.50;;;;;;5130244;27;20035;-77
2021/06/08 09:12:36;;;;;;;3.90;1.90;;;23.60;67.20;;;;;;5129990;27;20043;-75
2021/06/08 09:15:06;;;;;;;5.28;1.55;;;23.80;67.10;;;;;;5129885;27;20023;-76
2021/06/08 09:17:32;;;;;;;2.60;1.23;;;24.10;66.20;;;;;;5128580;27;20485;-76
2021/06/08 09:19:57;;;;;;;4.15;1.77;;;24.30;65.70;;;;;;5110122;28;20023;-75
2021/06/08 09:22:43;;;;;;;3.13;1.25;;;24.50;65.00;;;;;;5093838;28;20426;-75
2021/06/08 09:25:09;;;;;;;3.65;1.10;;;24.80;65.00;;;;;;5127606;28;20236;-78
2021/06/08 09:27:35;;;;;;;3.10;1.50;;;25.90;64.90;;;;;;5125011;27;20028;-76
2021/06/08 09:30:13;;;;;;;3.78;1.13;;;26.50;63.40;;;;;;5073682;28;20027;-78
2021/06/08 09:32:40;;;;;;;1.80;0.93;;;26.70;61.90;;;;;;5106935;28;20102;-77
2021/06/08 09:35:06;;;;;;;3.83;1.30;;;26.90;61.50;;;;;;5091369;28;20031;-77
2021/06/08 09:37:41;;;;;;;4.10;1.30;;;27.00;61.00;;;;;;5074083;28;20441;-77
2021/06/08 09:40:22;;;;;;;4.18;1.25;;;27.20;60.40;;;;;;5109063;28;20054;-77
2021/06/08 09:42:49;;;;;;;3.92;1.00;;;27.00;59.80;;;;;;5107821;28;20440;-77
2021/06/08 09:45:23;;;;;;;5.68;1.83;;;26.80;59.80;;;;;;5091074;28;20432;-77
2021/06/08 09:48:00;;;;;;;7.90;1.38;;;26.50;59.20;;;;;;5107975;28;20060;-78
2021/06/08 09:50:33;;;;;;;5.65;1.13;;;26.00;59.20;;;;;;5107945;28;20378;-78
2021/06/08 09:53:18;;;;;;;4.10;1.10;;;25.40;59.50;;;;;;5109161;28;20124;-78
2021/06/08 09:55:59;;;;;;;5.22;1.30;;;24.70;60.40;;;;;;5108876;28;20020;-76
2021/06/08 09:58:26;;;;;;;3.47;0.98;;;24.50;61.50;;;;;;5108718;28;20043;-79
2021/06/08 10:01:24;;;;;;;2.63;1.20;;;24.40;61.70;;;;;;5092928;28;20088;-78
2021/06/08 10:03:54;;;;;;;4.85;1.10;;;24.20;61.70;;;;;;5113169;28;20143;-79
2021/06/08 10:06:19;;;;;;;4.57;1.02;;;24.30;61.90;;;;;;5111011;28;20097;-79
2021/06/08 10:09:02;;;;;;;4.82;1.52;;;24.70;62.00;;;;;;5111723;28;20481;-80
2021/06/08 10:11:34;;;;;;;4.78;1.10;;;25.30;62.00;;;;;;5113537;28;20093;-80
2021/06/08 10:14:19;;;;;;;2.10;0.80;;;25.90;60.70;;;;;;5113432;27;20148;-78
2021/06/08 10:16:58;;;;;;;3.83;1.30;;;26.20;60.20;;;;;;5112720;28;20016;-78
2021/06/08 10:19:25;;;;;;;3.60;0.88;;;26.40;60.00;;;;;;5091691;28;20097;-79
2021/06/08 10:21:51;;;;;;;5.45;1.35;;;26.50;59.10;;;;;;5097478;28;20095;-79
2021/06/08 10:24:20;;;;;;;7.50;1.08;;;26.30;58.40;;;;;;5111441;28;20087;-79
2021/06/08 10:26:52;;;;;;;4.83;1.27;;;26.00;58.40;;;;;;5113224;28;20024;-78
2021/06/08 10:29:20;;;;;;;3.95;1.25;;;25.60;58.50;;;;;;5111660;28;20643;-78
2021/06/08 10:31:46;;;;;;;4.55;1.10;;;25.20;59.10;;;;;;5112996;28;20446;-79
2021/06/08 10:34:12;;;;;;;4.38;1.08;;;24.80;59.60;;;;;;5112330;28;20538;-79
2021/06/08 10:36:41;;;;;;;2.83;0.90;;;24.30;60.40;;;;;;5111690;28;20028;-78
2021/06/08 10:39:12;;;;;;;1.70;1.00;;;24.00;61.20;;;;;;5111090;28;20048;-80
2021/06/08 10:41:43;;;;;;;4.07;1.00;;;24.00;62.10;;;;;;5113137;28;20023;-79
2021/06/08 10:44:25;;;;;;;2.20;1.00;;;24.10;62.20;;;;;;5113562;28;20042;-80
2021/06/08 10:46:57;;;;;;;2.03;0.93;;;24.10;61.80;;;;;;5090971;28;20024;-78
2021/06/08 10:49:37;;;;;;;1.25;0.90;;;24.10;61.70;;;;;;5109123;28;20540;-78
2021/06/08 10:52:08;;;;;;;2.65;0.68;;;23.90;61.90;;;;;;5111359;28;20026;-80
2021/06/08 10:54:41;;;;;;;2.97;0.73;;;23.70;62.00;;;;;;5112301;28;20028;-78
2021/06/08 10:57:14;;;;;;;2.58;1.08;;;23.50;62.30;;;;;;5110384;28;20411;-79
2021/06/08 10:59:42;;;;;;;4.00;1.00;;;23.30;62.80;;;;;;5110538;28;20122;-81
2021/06/08 11:02:09;;;;;;;2.55;0.88;;;23.10;63.20;;;;;;5110525;28;20119;-81
2021/06/08 11:04:56;;;;;;;3.55;1.00;;;23.00;63.60;;;;;;5111017;28;20047;-80
2021/06/08 11:07:47;;;;;;;2.08;1.10;;;23.00;63.70;;;;;;5112532;28;20049;-81
2021/06/08 11:10:26;;;;;;;4.25;1.00;;;23.00;63.80;;;;;;5111410;28;20359;-78
2021/06/08 11:13:13;;;;;;;2.65;1.00;;;23.10;64.00;;;;;;5110297;28;20027;-78
2021/06/08 11:15:46;;;;;;;1.98;1.10;;;23.10;64.10;;;;;;5112313;28;20032;-79
2021/06/08 11:18:22;;;;;;;3.72;0.95;;;23.10;64.10;;;;;;5110444;28;20068;-79
2021/06/08 11:21:02;;;;;;;2.67;0.90;;;23.10;64.60;;;;;;5109958;28;20020;-81
2021/06/08 11:23:33;;;;;;;2.35;0.70;;;23.20;64.30;;;;;;5111629;28;20023;-81
2021/06/08 11:26:00;;;;;;;1.98;0.70;;;23.30;64.90;;;;;;5092737;28;20027;-79
2021/06/08 11:28:42;;;;;;;3.00;0.90;;;23.40;64.80;;;;;;5093125;28;20418;-80
2021/06/08 11:31:08;;;;;;;4.03;0.70;;;23.60;65.20;;;;;;5110751;28;20066;-77
2021/06/08 11:33:41;;;;;;;2.17;0.90;;;23.90;65.20;;;;;;5110438;28;20016;-78
2021/06/08 11:36:19;;;;;;;2.15;0.80;;;24.60;64.80;;;;;;5111298;28;20015;-81
2021/06/08 11:38:46;;;;;;;2.70;1.08;;;25.30;64.10;;;;;;5109236;28;20035;-80
2021/06/08 11:41:13;;;;;;;4.95;0.80;;;25.70;63.10;;;;;;5110254;28;20024;-79
2021/06/08 11:43:44;;;;;;;4.78;1.25;;;26.00;62.10;;;;;;5110067;28;20120;-79
2021/06/08 11:46:18;;;;;;;5.30;0.88;;;26.00;61.20;;;;;;5109600;28;20461;-78
2021/06/08 11:49:03;;;;;;;2.75;0.60;;;26.00;60.70;;;;;;5091256;28;20043;-81
2021/06/08 11:51:35;;;;;;;1.48;0.60;;;25.70;60.50;;;;;;5099877;28;20019;-81
2021/06/08 11:54:03;;;;;;;2.10;0.50;;;25.40;60.50;;;;;;5103315;28;20019;-80
2021/06/08 11:57:00;;;;;;;0.70;0.43;;;25.10;60.90;;;;;;5109567;28;20029;-81
2021/06/08 11:59:32;;;;;;;8.73;0.82;;;25.10;61.80;;;;;;5088172;28;20053;-77
2021/06/08 12:01:57;;;;;;;2.42;0.50;;;25.10;61.60;;;;;;5109360;28;20477;-81
2021/06/08 12:04:26;;;;;;;2.47;0.80;;;24.90;61.30;;;;;;5109393;28;20027;-79
2021/06/08 12:06:55;;;;;;;0.95;0.63;;;24.60;61.50;;;;;;5111022;28;20114;-82
2021/06/08 12:09:21;;;;;;;2.90;0.40;;;24.30;62.10;;;;;;5110092;28;20027;-78
2021/06/08 12:11:52;;;;;;;1.48;0.50;;;24.30;62.60;;;;;;5094812;28;20356;-80
2021/06/08 12:14:19;;;;;;;1.88;0.57;;;24.30;63.00;;;;;;5108065;28;20087;-80
2021/06/08 12:16:59;;;;;;;4.75;0.90;;;24.40;62.90;;;;;;5109677;28;20541;-80
2021/06/08 12:19:27;;;;;;;1.65;0.57;;;24.50;62.80;;;;;;5106188;28;20055;-78
2021/06/08 12:21:57;;;;;;;2.80;0.73;;;24.60;62.70;;;;;;5107617;28;20028;-78
2021/06/08 12:24:23;;;;;;;;;;;24.60;62.30;;;;;;5092505;28;20030;-79
2021/06/08 12:27:02;;;;;;;1.65;0.70;;;24.40;62.20;;;;;;5110686;28;19995;-79
2021/06/08 12:29:28;;;;;;;4.05;0.95;;;24.10;62.50;;;;;;5108850;28;20652;-80
2021/06/08 12:32:00;;;;;;;2.75;0.60;;;23.80;62.80;;;;;;5110339;28;20051;-80
2021/06/08 12:34:28;;;;;;;1.73;0.73;;;23.60;63.50;;;;;;5108872;28;20511;-79
2021/06/08 12:36:55;;;;;;;2.75;0.88;;;23.70;64.20;;;;;;5110627;28;20419;-78
2021/06/08 12:39:29;;;;;;;2.90;1.35;;;24.00;64.10;;;;;;5110820;28;20028;-78
2021/06/08 12:42:14;;;;;;;1.48;0.80;;;24.30;63.80;;;;;;5101944;28;20055;-78
2021/06/08 12:44:41;;;;;;;1.60;0.85;;;24.80;63.60;;;;;;5092058;28;20035;-79
2021/06/08 12:47:07;;;;;;;2.30;0.65;;;25.40;62.70;;;;;;5108783;28;20019;-80
2021/06/08 12:49:38;;;;;;;2.58;0.70;;;25.50;61.90;;;;;;5108578;28;20039;-79
2021/06/08 12:52:05;;;;;;;4.20;1.80;;;25.40;61.50;;;;;;5107923;28;20111;-78
2021/06/08 12:54:31;;;;;;;3.38;0.52;;;25.30;61.80;;;;;;5108196;28;20081;-80
2021/06/08 12:56:58;;;;;;;1.85;0.55;;;25.50;62.00;;;;;;5109675;28;20019;-77
2021/06/08 12:59:30;;;;;;;3.83;1.08;;;25.60;61.40;;;;;;5089077;28;20048;-79
2021/06/08 13:01:56;;;;;;;2.17;0.80;;;25.40;61.60;;;;;;5071635;28;20378;-79
2021/06/08 13:04:23;;;;;;;2.90;1.10;;;25.50;61.70;;;;;;5102521;28;20035;-77